Time;durP1;ratioP1;P1;durP2;ratioP2;P2;SDS_P1;SDS_P2;PMS_P1;PMS_P2;Temp;Humidity;BMP_temperature;BMP_pressure;BME280_temperature;BME280_humidity;BME280_pressure;Samples;Min_cycle;Max_cycle;Signal;HPM_P1;HPM_P2
2021/06/15 00:01:18;;;;;;;1.77;0.95;;;21.60;92.60;;;20.98;54.31;100925.09;5086288;28;20040;-57
2021/06/15 00:03:44;;;;;;;2.80;1.02;;;21.50;92.30;;;20.97;54.33;100928.75;5084841;28;20028;-58
2021/06/15 00:06:10;;;;;;;3.30;1.00;;;21.50;92.30;;;20.95;53.87;100922.84;5086149;28;20036;-56
2021/06/15 00:08:36;;;;;;;8.18;0.80;;;21.50;91.80;;;20.94;53.06;100929.97;5085741;28;20048;-54
2021/06/15 00:11:03;;;;;;;6.60;0.95;;;21.50;90.90;;;20.93;52.28;100928.34;5085999;28;20104;-56
2021/06/15 00:13:30;;;;;;;2.65;0.93;;;21.40;90.10;;;20.85;52.27;100934.63;5084614;28;20185;-55
2021/06/15 00:15:56;;;;;;;5.60;0.93;;;21.40;89.70;;;20.90;51.93;100935.88;5088455;28;20032;-56
2021/06/15 00:18:22;;;;;;;2.58;1.13;;;21.40;88.90;;;20.88;52.01;100938.72;5089179;28;20024;-60
2021/06/15 00:20:50;;;;;;;4.00;1.10;;;21.40;88.30;;;20.86;51.92;100932.81;5089374;28;20040;-56
2021/06/15 00:23:19;;;;;;;3.53;0.80;;;21.40;87.70;;;20.84;52.09;100933.00;5088443;28;20502;-56
2021/06/15 00:25:45;;;;;;;4.47;1.48;;;21.40;88.10;;;20.85;52.22;100934.63;5089422;28;20032;-58
2021/06/15 00:28:11;;;;;;;7.43;1.40;;;21.40;88.20;;;20.84;52.64;100933.00;5090623;28;20032;-58
2021/06/15 00:30:37;;;;;;;5.95;0.88;;;21.40;88.80;;;20.81;52.75;100928.09;5087920;28;20573;-57
2021/06/15 00:33:03;;;;;;;2.88;1.27;;;21.30;88.60;;;20.78;53.00;100931.19;5087178;28;20111;-59
2021/06/15 00:35:29;;;;;;;4.68;0.90;;;21.30;88.70;;;20.72;54.08;100934.63;5089239;28;20044;-58
2021/06/15 00:37:55;;;;;;;3.58;1.25;;;21.30;90.20;;;20.67;54.72;100937.06;5088466;28;20525;-56
2021/06/15 00:40:23;;;;;;;9.10;1.20;;;21.20;90.80;;;20.60;56.90;100944.16;5090296;28;20032;-59
2021/06/15 00:42:50;;;;;;;2.78;1.20;;;21.20;92.30;;;20.52;58.36;100939.03;5089130;28;20122;-58
2021/06/15 00:45:24;;;;;;;5.05;1.50;;;21.10;93.90;;;20.45;59.48;100938.19;5087840;28;20161;-56
2021/06/15 00:47:51;;;;;;;2.70;1.20;;;21.10;95.00;;;20.43;60.12;100934.91;5086189;28;20043;-57
2021/06/15 00:50:19;;;;;;;5.13;1.30;;;21.00;95.80;;;20.39;60.82;100944.25;5088118;28;20031;-62
2021/06/15 00:52:45;;;;;;;4.80;1.45;;;21.00;96.60;;;20.28;61.65;100942.16;5088489;28;20115;-61
2021/06/15 00:55:12;;;;;;;10.00;1.33;;;20.90;97.50;;;20.21;61.77;100937.66;5088614;28;20063;-59
2021/06/15 00:57:38;;;;;;;3.17;0.98;;;20.80;97.80;;;20.23;61.18;100936.66;5088890;28;20864;-55
2021/06/15 01:00:07;;;;;;;6.35;1.25;;;20.80;97.70;;;20.23;61.23;100926.06;5089988;28;20135;-55
2021/06/15 01:02:33;;;;;;;2.83;1.10;;;20.80;97.60;;;20.23;61.34;100926.06;5086741;28;20036;-60
2021/06/15 01:05:01;;;;;;;2.38;0.93;;;20.80;97.90;;;20.25;61.25;100931.97;5103633;28;20049;-58
2021/06/15 01:07:49;;;;;;;3.90;1.33;;;20.80;97.80;;;20.20;60.51;100925.44;5088745;28;20101;-60
2021/06/15 01:10:50;;;;;;;5.78;1.10;;;20.70;97.50;;;20.12;61.47;100920.31;5086295;28;20391;-58
2021/06/15 01:13:47;;;;;;;5.78;1.30;;;20.70;97.90;;;20.05;61.80;100921.28;5081582;28;20048;-60
2021/06/15 01:16:41;;;;;;;2.05;1.00;;;20.70;98.30;;;20.01;61.19;100925.31;5089573;28;20036;-62
2021/06/15 01:19:44;;;;;;;3.28;1.20;;;20.60;97.80;;;20.00;60.91;100924.50;5087048;28;20135;-60
2021/06/15 01:22:55;;;;;;;5.75;1.20;;;20.60;97.60;;;19.96;63.87;100930.38;5087446;28;20422;-56
2021/06/15 01:25:41;;;;;;;3.85;1.35;;;20.60;98.60;;;19.87;62.92;100924.44;5066174;28;20051;-53
2021/06/15 01:28:55;;;;;;;2.13;1.20;;;20.50;99.40;;;19.81;65.57;100927.88;5088075;28;20048;-56
2021/06/15 01:31:36;;;;;;;2.10;1.05;;;20.40;99.90;;;19.67;65.59;100934.06;5082034;28;20040;-53
2021/06/15 01:34:21;;;;;;;3.88;1.40;;;20.30;99.90;;;19.62;66.18;100920.59;5087081;28;20441;-60
2021/06/15 01:37:07;;;;;;;4.30;1.33;;;20.20;99.90;;;19.52;66.68;100921.75;5085963;28;20056;-60
2021/06/15 01:39:42;;;;;;;3.85;1.08;;;20.10;99.90;;;19.48;66.11;100925.75;5087711;28;20466;-58
2021/06/15 01:42:21;;;;;;;5.22;1.17;;;20.00;99.90;;;19.43;66.41;100924.69;5086985;28;20044;-60
2021/06/15 01:44:53;;;;;;;3.38;1.20;;;20.00;99.90;;;19.36;66.62;100921.22;5086609;28;20036;-56
2021/06/15 01:47:23;;;;;;;6.40;1.80;;;19.90;99.90;;;19.30;66.66;100929.91;5088010;28;20039;-54
2021/06/15 01:49:53;;;;;;;5.28;1.33;;;19.90;99.90;;;19.21;67.41;100931.84;5085876;28;20032;-56
2021/06/15 01:52:26;;;;;;;5.07;2.00;;;19.80;99.90;;;19.15;67.63;100930.78;5085066;28;20109;-62
2021/06/15 01:54:55;;;;;;;3.17;1.67;;;19.70;99.90;;;19.08;67.76;100926.44;5084465;28;20050;-56
2021/06/15 01:57:22;;;;;;;4.13;1.40;;;19.70;99.90;;;18.99;68.18;100928.38;5086602;28;20043;-60
2021/06/15 01:59:52;;;;;;;2.92;1.73;;;19.60;99.90;;;18.88;68.82;100923.63;5087377;28;20093;-60
2021/06/15 02:02:19;;;;;;;4.80;1.65;;;19.50;99.90;;;18.76;69.39;100925.91;5086428;28;20130;-58
2021/06/15 02:04:50;;;;;;;3.50;1.40;;;19.40;99.90;;;18.66;69.28;100920.13;5086326;28;20024;-60
2021/06/15 02:07:23;;;;;;;4.40;1.45;;;19.30;99.90;;;18.58;69.07;100928.94;5085646;28;20044;-58
2021/06/15 02:10:01;;;;;;;2.97;1.10;;;19.20;99.90;;;18.52;69.81;100924.38;5086117;28;20075;-61
2021/06/15 02:12:31;;;;;;;4.38;1.40;;;19.20;99.90;;;18.43;69.75;100920.22;5088808;28;20024;-59
2021/06/15 02:14:59;;;;;;;5.88;1.40;;;19.10;99.90;;;18.43;67.56;100914.94;5086185;28;20127;-57
2021/06/15 02:17:26;;;;;;;3.22;1.20;;;19.00;99.90;;;18.54;65.41;100917.09;5086291;28;20085;-58
2021/06/15 02:19:53;;;;;;;5.70;1.27;;;19.10;99.90;;;18.43;66.74;100914.94;5085265;28;20455;-61
2021/06/15 02:22:22;;;;;;;5.22;1.73;;;19.00;99.90;;;18.33;67.33;100916.25;5084695;28;20036;-59
2021/06/15 02:24:56;;;;;;;3.97;1.52;;;19.00;99.90;;;18.26;67.74;100918.81;5086210;28;20035;-59
2021/06/15 02:27:23;;;;;;;5.72;1.73;;;18.90;99.90;;;18.17;67.74;100917.25;5086056;28;20055;-60
2021/06/15 02:29:58;;;;;;;2.65;1.30;;;18.80;99.90;;;18.15;67.94;100919.25;5086896;28;20047;-63
2021/06/15 02:32:30;;;;;;;10.35;1.38;;;18.80;99.90;;;18.08;68.09;100924.44;5087265;28;20036;-61
2021/06/15 02:35:00;;;;;;;7.97;1.30;;;18.70;99.90;;;18.03;68.23;100918.91;5084130;28;20052;-60
2021/06/15 02:37:35;;;;;;;2.22;1.02;;;18.60;99.90;;;17.95;68.28;100919.00;5085725;28;20056;-63
2021/06/15 02:40:05;;;;;;;4.03;1.48;;;18.60;99.90;;;17.80;68.91;100923.44;5085315;28;20063;-60
2021/06/15 02:42:39;;;;;;;5.30;1.85;;;18.50;99.90;;;17.72;69.25;100910.34;5086396;28;20032;-61
2021/06/15 02:45:08;;;;;;;5.25;1.42;;;18.30;99.90;;;17.68;69.39;100915.16;5086735;28;20187;-61
2021/06/15 02:47:36;;;;;;;4.45;1.60;;;18.30;99.90;;;17.65;69.70;100919.94;5085485;28;20193;-59
2021/06/15 02:50:07;;;;;;;2.47;1.88;;;18.20;99.90;;;17.49;70.24;100920.91;5331910;22;20060;-53
2021/06/15 02:52:51;;;;;;;5.63;1.63;;;18.20;99.90;;;17.45;70.37;100923.09;5086383;28;20474;-52
2021/06/15 02:55:29;;;;;;;2.80;1.50;;;18.10;99.90;;;17.46;70.34;100923.91;5088069;28;20035;-51
2021/06/15 02:57:55;;;;;;;4.90;1.38;;;18.10;99.90;;;17.48;70.39;100924.56;5070773;28;20034;-55
2021/06/15 03:00:21;;;;;;;4.07;1.42;;;18.10;99.90;;;17.44;70.65;100926.72;5087718;28;20032;-53
2021/06/15 03:02:47;;;;;;;2.38;1.30;;;18.00;99.90;;;17.53;70.59;100917.72;5087860;28;20048;-53
2021/06/15 03:05:16;;;;;;;6.65;1.05;;;18.00;99.90;;;17.64;67.20;100919.13;5069287;28;20040;-55
2021/06/15 03:07:43;;;;;;;3.40;1.55;;;18.10;99.90;;;17.81;64.69;100931.19;5086299;28;20036;-55
2021/06/15 03:10:10;;;;;;;3.50;1.10;;;18.20;99.90;;;17.97;63.24;100924.06;5087633;28;20039;-54
2021/06/15 03:13:09;;;;;;;3.25;1.05;;;18.40;99.90;;;17.96;61.69;100920.63;5087796;28;20024;-57
2021/06/15 03:15:52;;;;;;;4.90;1.38;;;18.50;99.90;;;17.96;60.90;100923.25;5070465;28;20084;-56
2021/06/15 03:18:59;;;;;;;3.15;1.35;;;18.50;99.90;;;17.94;60.69;100929.75;5087344;28;20085;-55
2021/06/15 03:21:29;;;;;;;3.65;1.33;;;18.50;99.80;;;17.89;62.37;100925.81;5062797;28;20535;-56
2021/06/15 03:24:04;;;;;;;3.80;1.50;;;18.40;99.90;;;17.72;63.50;100928.78;5069449;28;20043;-54
2021/06/15 03:26:58;;;;;;;3.60;1.33;;;18.30;99.90;;;17.68;64.80;100932.78;5069640;28;20032;-54
2021/06/15 03:29:30;;;;;;;2.53;0.93;;;18.20;99.90;;;17.67;64.15;100933.78;5068932;28;20040;-54
2021/06/15 03:32:02;;;;;;;3.88;1.30;;;18.30;99.90;;;17.73;64.39;100931.25;5087371;28;20093;-56
2021/06/15 03:34:31;;;;;;;3.70;1.30;;;18.30;99.90;;;17.74;64.84;100932.06;5087578;28;20036;-56
2021/06/15 03:36:59;;;;;;;3.78;1.10;;;18.30;99.90;;;17.66;65.18;100932.16;5087172;28;20032;-57
2021/06/15 03:39:30;;;;;;;3.05;1.23;;;18.30;99.90;;;17.69;65.51;100937.06;5087108;28;20081;-56
2021/06/15 03:42:00;;;;;;;3.97;1.25;;;18.30;99.90;;;17.78;65.49;100941.25;5069691;28;20028;-57
2021/06/15 03:44:26;;;;;;;5.25;1.40;;;18.30;99.90;;;17.85;65.17;100936.91;5087131;28;20514;-55
2021/06/15 03:46:57;;;;;;;3.83;1.38;;;18.40;99.90;;;18.01;62.92;100947.25;5087180;28;20081;-56
2021/06/15 03:49:25;;;;;;;13.23;1.60;;;18.50;99.90;;;17.95;63.77;100939.28;5086857;28;20087;-52
2021/06/15 03:51:57;;;;;;;3.45;1.33;;;18.60;99.90;;;17.84;64.95;100943.16;5072720;28;20109;-54
2021/06/15 03:54:25;;;;;;;3.28;0.98;;;18.50;99.90;;;17.94;62.91;100941.09;5072665;28;20051;-55
2021/06/15 03:56:55;;;;;;;2.35;1.10;;;18.60;99.90;;;18.03;62.04;100933.91;5090939;28;20557;-54
2021/06/15 03:59:26;;;;;;;6.45;1.45;;;18.60;99.90;;;18.02;62.35;100927.81;5056379;28;20039;-56
2021/06/15 04:01:56;;;;;;;5.90;1.40;;;18.60;99.90;;;18.09;62.13;100934.00;5072785;28;20084;-51
2021/06/15 04:04:23;;;;;;;4.53;0.95;;;18.70;99.60;;;18.16;61.73;100934.09;5072572;28;20712;-50
2021/06/15 04:06:53;;;;;;;8.13;1.42;;;18.70;99.50;;;18.17;61.25;100941.81;5072465;28;20032;-53
2021/06/15 04:09:22;;;;;;;6.95;0.88;;;18.70;99.20;;;18.15;61.57;100935.91;5090696;28;20031;-50
2021/06/15 04:11:53;;;;;;;6.43;0.80;;;18.80;99.10;;;17.98;62.01;100942.34;5090788;28;20031;-49
2021/06/15 04:14:20;;;;;;;4.95;1.00;;;18.70;99.10;;;17.94;62.30;100940.28;5073423;28;20046;-52
2021/06/15 04:16:49;;;;;;;4.40;0.98;;;18.60;99.30;;;18.01;61.96;100941.97;5090576;28;20028;-53
2021/06/15 04:19:21;;;;;;;5.85;0.93;;;18.60;99.20;;;18.14;61.50;100936.91;5090521;28;20251;-53
2021/06/15 04:21:48;;;;;;;5.07;1.17;;;18.70;99.20;;;18.22;61.46;100949.19;5090444;28;20119;-50
2021/06/15 04:24:20;;;;;;;4.68;1.00;;;18.80;99.10;;;18.35;60.90;100951.19;5072145;28;20031;-53
2021/06/15 04:26:46;;;;;;;12.48;2.33;;;18.80;98.80;;;18.39;59.87;100955.09;5071957;28;20204;-52
2021/06/15 04:29:16;;;;;;;7.90;1.38;;;18.90;97.90;;;18.41;59.43;100953.91;5090569;28;20032;-56
2021/06/15 04:31:45;;;;;;;4.95;0.95;;;18.90;97.30;;;18.43;58.27;100956.38;5090413;28;20038;-55
2021/06/15 04:34:14;;;;;;;4.47;0.60;;;18.90;96.50;;;18.50;57.79;100951.97;5090228;28;20112;-52
2021/06/15 04:36:43;;;;;;;4.32;1.13;;;19.00;96.10;;;18.55;57.47;100957.50;5072308;28;20051;-50
2021/06/15 04:39:15;;;;;;;3.72;0.80;;;19.00;95.70;;;18.63;56.75;100949.53;5072219;28;20096;-52
2021/06/15 04:42:06;;;;;;;3.53;0.98;;;19.10;95.20;;;18.73;55.79;100950.03;5072217;28;20025;-56
2021/06/15 04:44:40;;;;;;;3.90;0.90;;;19.20;94.30;;;18.87;55.91;100949.19;5090402;28;20032;-62
2021/06/15 04:47:23;;;;;;;4.10;0.93;;;19.30;94.30;;;19.13;55.55;100950.44;5072149;28;20024;-59
2021/06/15 04:50:28;;;;;;;5.22;1.13;;;19.50;94.10;;;19.37;55.30;100944.78;5089648;28;20062;-58
2021/06/15 04:52:57;;;;;;;5.15;0.93;;;19.80;93.90;;;19.48;55.91;100952.19;5054362;28;20036;-57
2021/06/15 04:55:28;;;;;;;6.53;0.90;;;19.90;94.20;;;19.51;56.18;100945.72;5090057;28;20036;-59
2021/06/15 04:57:58;;;;;;;2.92;0.70;;;20.00;94.20;;;19.59;55.90;100953.53;5090006;28;20040;-60
2021/06/15 05:00:30;;;;;;;3.25;0.88;;;20.10;93.70;;;19.78;55.55;100952.88;5089751;28;20382;-59
2021/06/15 05:02:58;;;;;;;3.50;0.82;;;20.20;93.60;;;19.99;55.53;100953.78;5089839;28;20082;-56
2021/06/15 05:05:25;;;;;;;4.57;1.45;;;20.50;93.60;;;19.98;55.19;100952.16;5071570;28;20035;-59
2021/06/15 05:08:02;;;;;;;4.88;0.98;;;20.50;93.10;;;20.05;55.00;100955.66;5071692;28;20047;-60
2021/06/15 05:10:30;;;;;;;4.90;0.90;;;20.50;93.00;;;20.04;54.98;100952.19;5089678;28;20086;-58
2021/06/15 05:12:57;;;;;;;4.90;0.80;;;20.60;92.70;;;20.02;54.96;100964.81;5089719;28;20032;-60
2021/06/15 05:15:28;;;;;;;2.30;0.90;;;20.60;92.40;;;20.03;54.12;100963.78;5071072;28;20119;-59
2021/06/15 05:17:57;;;;;;;3.42;0.80;;;20.60;91.60;;;19.96;53.25;100968.22;5071211;28;20043;-61
2021/06/15 05:20:25;;;;;;;2.63;0.60;;;20.50;90.50;;;19.84;52.31;100972.44;5071217;28;20036;-60
2021/06/15 05:23:12;;;;;;;4.53;0.82;;;20.40;89.00;;;19.78;52.83;100979.31;5089458;28;20043;-59
2021/06/15 05:25:38;;;;;;;3.97;0.80;;;20.30;89.90;;;19.67;53.16;100979.81;5071515;28;20090;-58
2021/06/15 05:28:04;;;;;;;4.88;0.70;;;20.30;89.00;;;19.74;52.60;100980.69;5089784;28;20044;-58
2021/06/15 05:30:30;;;;;;;3.72;1.17;;;20.30;88.50;;;19.96;52.33;100975.34;5089424;28;20028;-57
2021/06/15 05:32:56;;;;;;;4.53;1.02;;;20.40;89.00;;;20.10;52.34;100979.72;5089089;28;20470;-55
2021/06/15 05:35:23;;;;;;;6.65;1.42;;;20.60;88.90;;;20.14;52.42;100979.13;5089019;28;20024;-57
2021/06/15 05:37:49;;;;;;;4.32;1.13;;;20.60;88.80;;;20.03;52.72;100984.97;5089404;28;20109;-58
2021/06/15 05:40:17;;;;;;;2.72;0.82;;;20.50;89.00;;;19.99;52.79;100991.63;5088844;28;20370;-58
2021/06/15 05:42:43;;;;;;;4.03;0.70;;;20.50;88.90;;;20.00;52.88;100987.16;5089228;28;20028;-59
2021/06/15 05:45:11;;;;;;;2.97;0.77;;;20.50;88.80;;;19.96;52.99;100985.91;5088755;28;20040;-60
2021/06/15 05:47:37;;;;;;;7.30;1.20;;;20.50;89.30;;;20.07;53.20;100988.03;5070172;28;20398;-59
2021/06/15 05:50:05;;;;;;;8.15;1.02;;;20.60;90.00;;;20.14;53.27;100987.06;5088575;28;20073;-58
2021/06/15 05:52:31;;;;;;;5.45;1.17;;;20.60;89.80;;;20.11;53.44;100992.75;5088768;28;20056;-57
2021/06/15 05:55:02;;;;;;;1.63;0.73;;;20.70;89.70;;;20.14;53.37;100992.34;5070148;28;20433;-59
2021/06/15 05:57:30;;;;;;;6.15;1.10;;;20.60;89.90;;;20.31;53.42;101002.63;5088566;28;20032;-60
2021/06/15 05:59:59;;;;;;;13.95;1.13;;;20.70;90.30;;;20.50;53.05;101000.09;5088427;28;20024;-57
2021/06/15 06:02:26;;;;;;;3.80;1.08;;;21.00;89.60;;;20.52;52.84;101002.56;5088494;28;20032;-58
2021/06/15 06:08:04;;;;;;;4.30;0.65;;;21.00;89.20;;;20.43;52.73;101001.91;5088875;28;20115;-54
2021/06/15 06:10:22;;;;;;;3.33;1.00;;;21.10;87.50;;;20.68;52.18;101001.41;5088983;28;20105;-59
2021/06/15 06:12:48;;;;;;;5.03;1.13;;;21.30;87.00;;;20.86;51.82;101005.13;5088313;28;20563;-58
2021/06/15 06:15:16;;;;;;;6.05;0.65;;;21.30;87.00;;;20.93;51.71;101004.34;5088315;28;20061;-60
2021/06/15 06:17:43;;;;;;;3.92;1.08;;;21.50;86.40;;;20.96;51.69;101003.94;5069874;28;20032;-57
2021/06/15 06:20:13;;;;;;;3.83;0.98;;;21.50;86.40;;;20.98;51.72;101004.56;5069923;28;20062;-63
2021/06/15 06:22:40;;;;;;;2.83;0.88;;;21.60;86.20;;;20.92;51.82;101005.34;5088447;28;20040;-58
2021/06/15 06:25:09;;;;;;;3.45;1.02;;;21.60;84.80;;;21.02;51.76;101001.31;5088410;28;20491;-58
2021/06/15 06:27:36;;;;;;;5.45;0.75;;;21.60;85.40;;;21.02;51.34;101008.44;5088288;28;20047;-62
2021/06/15 06:30:04;;;;;;;3.97;0.85;;;21.70;84.50;;;20.75;51.76;101011.03;5088314;28;20034;-55
2021/06/15 06:32:30;;;;;;;3.10;0.70;;;21.50;84.20;;;20.60;52.42;101012.97;5088024;28;20068;-59
2021/06/15 06:34:56;;;;;;;3.92;0.90;;;21.30;85.30;;;20.55;52.53;101015.41;5088267;28;20040;-59
2021/06/15 06:37:22;;;;;;;10.35;1.35;;;21.20;85.60;;;20.37;53.01;101007.13;5088087;28;20035;-61
2021/06/15 06:39:48;;;;;;;13.43;3.42;;;21.00;86.00;;;20.38;53.07;101014.09;5088488;28;20036;-60
2021/06/15 06:42:14;;;;;;;1.92;0.90;;;21.00;86.60;;;20.35;53.38;101002.03;5088009;28;20119;-60
2021/06/15 06:44:40;;;;;;;3.78;0.80;;;20.90;87.30;;;20.32;53.28;101018.28;5087930;28;20036;-58
2021/06/15 06:47:06;;;;;;;5.03;1.05;;;20.80;87.60;;;20.31;53.36;101013.22;5087547;28;20094;-54
2021/06/15 06:49:32;;;;;;;2.83;1.20;;;20.80;87.70;;;20.26;53.54;101019.09;5087587;28;20052;-59
2021/06/15 06:51:58;;;;;;;6.38;1.20;;;20.80;87.80;;;20.27;53.39;101019.91;5087983;28;20032;-57
2021/06/15 06:54:24;;;;;;;3.97;0.93;;;20.80;87.70;;;20.27;53.78;101014.63;5088126;28;20074;-56
2021/06/15 06:56:50;;;;;;;3.00;1.00;;;20.80;88.30;;;20.13;53.93;101022.47;5088060;28;20062;-59
2021/06/15 06:59:16;;;;;;;3.70;0.90;;;20.80;88.30;;;20.33;54.06;101016.47;5087908;28;20114;-55
2021/06/15 07:01:43;;;;;;;8.70;1.50;;;20.80;89.30;;;20.45;53.85;101014.94;5087902;28;20073;-58
2021/06/15 07:04:09;;;;;;;9.35;0.88;;;20.90;89.20;;;20.42;53.71;101017.97;5069108;28;20031;-52
2021/06/15 07:06:35;;;;;;;4.25;0.77;;;20.90;88.70;;;20.59;53.49;101016.66;5087544;28;20036;-60
2021/06/15 07:09:01;;;;;;;9.93;1.85;;;21.00;89.10;;;20.59;53.34;101019.28;5087222;28;20044;-55
2021/06/15 07:11:27;;;;;;;11.75;1.23;;;21.00;88.40;;;20.52;53.77;101013.16;5087346;28;20036;-57
2021/06/15 07:13:53;;;;;;;8.02;0.90;;;21.10;88.50;;;20.47;53.58;101007.63;5087286;28;20036;-54
2021/06/15 07:16:18;;;;;;;7.55;1.00;;;21.00;87.70;;;20.62;53.11;101013.59;5086960;28;20059;-57
2021/06/15 07:18:44;;;;;;;5.50;1.00;;;21.00;87.60;;;20.71;52.87;101014.25;5087188;28;20064;-55
2021/06/15 07:21:10;;;;;;;5.20;1.02;;;21.10;87.40;;;20.98;52.21;101021.28;5087279;28;20049;-58
2021/06/15 07:23:37;;;;;;;6.15;0.90;;;21.30;87.00;;;21.08;52.09;101012.94;5087514;28;20475;-54
2021/06/15 07:26:03;;;;;;;9.65;1.35;;;21.40;86.80;;;21.10;51.97;101010.91;5073111;28;20036;-57
2021/06/15 07:28:29;;;;;;;5.15;1.33;;;21.60;85.80;;;21.22;51.76;101016.47;5091500;28;20055;-59
2021/06/15 07:30:56;;;;;;;4.93;0.80;;;21.60;85.50;;;21.27;51.32;101012.19;5091593;28;20490;-60
2021/06/15 07:33:22;;;;;;;3.65;1.13;;;21.60;85.20;;;21.27;51.78;101017.50;5091596;28;20036;-51
2021/06/15 07:35:48;;;;;;;5.03;1.25;;;21.70;85.20;;;21.46;51.20;101015.88;5091753;28;20040;-55
2021/06/15 07:38:14;;;;;;;6.60;1.30;;;21.90;84.80;;;21.61;51.15;101019.19;5072923;28;20459;-50
2021/06/15 07:40:39;;;;;;;5.70;0.98;;;22.10;84.50;;;21.55;51.28;101019.97;5092038;28;20034;-55
2021/06/15 07:43:05;;;;;;;6.72;1.67;;;22.10;83.90;;;21.55;51.68;101019.97;5069091;28;20105;-54
2021/06/15 07:45:36;;;;;;;9.13;1.00;;;22.10;84.60;;;21.53;51.96;101019.38;5053458;28;20055;-52
2021/06/15 07:48:03;;;;;;;7.40;1.10;;;22.20;84.70;;;21.63;51.56;101014.50;5071443;28;20075;-52
2021/06/15 07:50:29;;;;;;;6.45;1.33;;;22.20;84.30;;;21.90;51.27;101015.28;5053266;28;20052;-48
2021/06/15 07:52:55;;;;;;;10.57;1.38;;;22.30;84.50;;;22.09;50.90;101017.13;5071571;28;20025;-56
2021/06/15 07:55:21;;;;;;;11.95;1.63;;;22.60;84.20;;;22.22;50.65;101020.75;5071606;28;20033;-51
2021/06/15 07:57:48;;;;;;;5.75;1.13;;;22.60;83.60;;;22.42;49.40;101013.56;5071181;28;20024;-55
2021/06/15 08:00:17;;;;;;;9.60;1.42;;;22.80;82.00;;;22.36;49.48;101014.41;5053112;28;20131;-56
2021/06/15 08:02:44;;;;;;;3.70;0.98;;;22.90;81.50;;;22.11;49.94;101011.63;5053102;28;20028;-51
2021/06/15 08:05:12;;;;;;;5.70;1.45;;;22.90;80.90;;;21.95;50.13;101010.19;5071469;28;20043;-56
2021/06/15 08:07:38;;;;;;;4.53;1.33;;;22.70;80.50;;;22.10;50.09;101013.47;5052860;28;20029;-57
2021/06/15 08:10:05;;;;;;;5.00;1.48;;;22.70;81.00;;;22.08;50.36;101012.84;5053036;28;20039;-57
2021/06/15 08:12:31;;;;;;;7.97;1.15;;;22.70;81.00;;;22.43;49.47;101013.38;5070792;28;20472;-54
2021/06/15 08:14:57;;;;;;;11.50;1.27;;;23.00;80.50;;;22.99;48.45;101009.28;5070952;28;20029;-54
2021/06/15 08:17:23;;;;;;;7.32;1.15;;;23.40;80.10;;;23.11;47.92;101011.06;5052985;28;20036;-54
2021/06/15 08:19:50;;;;;;;5.88;1.85;;;23.50;78.50;;;22.98;48.35;101005.81;5070907;28;20105;-55
2021/06/15 08:22:16;;;;;;;8.82;1.40;;;23.50;78.10;;;23.38;47.61;101000.22;5070915;28;20041;-56
2021/06/15 08:24:42;;;;;;;7.30;1.38;;;23.80;77.50;;;23.86;46.77;100997.81;5079167;28;20131;-53
2021/06/15 08:27:08;;;;;;;8.48;1.45;;;24.40;76.00;;;23.87;46.82;100999.44;5074644;28;20040;-57
2021/06/15 08:29:34;;;;;;;6.15;1.65;;;24.50;75.70;;;24.49;45.58;101002.94;5070787;28;20146;-56
2021/06/15 08:32:00;;;;;;;5.50;1.00;;;24.90;74.80;;;24.88;44.97;101004.25;5070780;28;20055;-57
2021/06/15 08:34:26;;;;;;;4.70;0.93;;;25.30;73.30;;;25.31;43.53;101004.09;5070828;28;20041;-58
2021/06/15 08:36:52;;;;;;;4.13;0.90;;;25.80;71.00;;;25.92;42.54;101002.91;5070089;28;20446;-57
2021/06/15 08:39:18;;;;;;;5.65;0.93;;;26.40;70.10;;;26.34;41.65;101002.75;5070717;28;20046;-57
2021/06/15 08:41:44;;;;;;;4.13;1.05;;;26.90;68.20;;;26.70;40.72;101005.09;5071060;28;20542;-57
2021/06/15 08:44:10;;;;;;;4.28;0.90;;;27.30;66.40;;;27.28;39.66;101000.53;5069359;28;20040;-58
2021/06/15 08:46:37;;;;;;;3.03;0.82;;;27.80;65.00;;;27.50;38.86;101003.28;5070804;28;20111;-56
2021/06/15 08:49:04;;;;;;;3.90;1.33;;;28.30;62.90;;;27.32;38.22;100999.81;5070641;28;20078;-56
2021/06/15 08:51:30;;;;;;;2.88;0.90;;;28.30;60.80;;;27.27;37.69;101001.59;5070352;28;20476;-58
2021/06/15 08:54:03;;;;;;;2.65;0.80;;;28.10;59.10;;;27.32;37.50;101005.19;5070559;28;20120;-59
2021/06/15 08:56:32;;;;;;;3.03;1.08;;;28.20;58.60;;;27.48;37.31;101000.06;5070644;28;20115;-59
2021/06/15 08:59:25;;;;;;;4.82;1.17;;;28.40;58.20;;;28.11;36.10;100990.84;5070323;28;20060;-60
2021/06/15 09:01:57;;;;;;;6.05;1.17;;;28.90;57.00;;;28.28;35.25;100988.97;5051910;28;20459;-62
2021/06/15 09:04:24;;;;;;;3.25;1.15;;;29.30;55.60;;;27.76;37.26;100991.97;5052246;28;20434;-57
2021/06/15 09:06:56;;;;;;;2.80;1.15;;;28.80;57.30;;;28.11;36.62;100990.84;5068909;28;20067;-60
2021/06/15 09:09:22;;;;;;;4.13;0.80;;;28.80;57.00;;;28.51;35.24;100988.69;5051821;28;20180;-55
2021/06/15 09:11:58;;;;;;;2.80;0.88;;;29.20;56.00;;;28.49;33.38;100985.44;5084420;28;20028;-54
2021/06/15 09:14:50;;;;;;;6.63;1.10;;;29.20;53.60;;;28.87;31.94;100987.22;5088900;28;20146;-58
2021/06/15 09:17:29;;;;;;;5.40;1.10;;;29.60;51.90;;;27.74;34.04;100983.38;5070628;28;20036;-59
2021/06/15 09:20:17;;;;;;;4.82;1.13;;;28.80;52.10;;;27.62;35.82;100979.97;5074753;28;20391;-58
2021/06/15 09:22:43;;;;;;;7.70;0.90;;;28.50;54.60;;;27.03;37.24;100987.53;5080179;28;20048;-59
2021/06/15 09:25:14;;;;;;;4.03;0.90;;;28.10;55.30;;;27.47;36.20;100977.03;5090477;28;20032;-57
2021/06/15 09:27:41;;;;;;;6.55;1.00;;;28.10;55.50;;;27.29;37.38;100978.91;5089337;28;20458;-57
2021/06/15 09:30:13;;;;;;;2.75;0.93;;;28.10;56.20;;;27.27;37.42;100978.34;5088315;28;20031;-58
2021/06/15 09:32:41;;;;;;;3.42;0.88;;;28.10;56.80;;;27.00;38.52;100988.81;5090824;28;20157;-59
2021/06/15 09:35:20;;;;;;;6.50;1.23;;;27.80;57.30;;;26.50;40.22;100977.16;5068922;28;20081;-58
2021/06/15 09:38:00;;;;;;;4.75;1.10;;;27.20;58.90;;;26.96;38.16;100989.53;5069167;28;20028;-58
2021/06/15 09:40:40;;;;;;;5.05;0.80;;;27.60;58.00;;;27.83;38.09;100987.25;5079576;28;20411;-59
2021/06/15 09:43:11;;;;;;;2.92;0.85;;;28.00;58.60;;;27.73;38.26;100984.44;5069309;28;20036;-56
2021/06/15 09:45:46;;;;;;;3.85;0.82;;;28.30;58.10;;;27.37;38.16;100983.03;5088451;28;20040;-57
2021/06/15 09:48:37;;;;;;;;;;;28.10;57.30;;;27.29;38.10;100981.59;5061598;28;20047;-54
2021/06/15 09:51:11;;;;;;;2.67;0.80;;;28.00;57.50;;;27.87;37.88;100980.34;5065977;28;19973;-58
2021/06/15 09:53:45;;;;;;;2.75;1.00;;;28.10;58.60;;;28.05;37.26;100974.69;5069208;28;20044;-59
2021/06/15 09:56:17;;;;;;;4.95;1.05;;;28.40;57.90;;;27.79;37.64;100978.09;5073811;28;20047;-55
2021/06/15 09:58:55;;;;;;;2.85;1.20;;;28.30;57.50;;;27.61;37.24;100967.66;5088049;28;20044;-55
2021/06/15 10:01:34;;;;;;;2.45;0.90;;;28.20;57.20;;;27.92;38.10;100969.69;5086173;28;20448;-56
2021/06/15 10:04:12;;;;;;;4.40;1.42;;;28.20;58.70;;;27.30;38.91;100969.81;5086408;28;20040;-54
2021/06/15 10:06:49;;;;;;;3.20;1.08;;;28.00;58.50;;;26.61;40.82;100976.31;5083371;28;20506;-55
2021/06/15 10:09:30;;;;;;;4.97;1.00;;;27.20;60.60;;;26.89;41.18;100976.31;5082095;28;20118;-57
2021/06/15 10:12:08;;;;;;;6.30;1.02;;;27.20;61.70;;;27.61;40.58;100967.66;5087223;28;20036;-58
2021/06/15 10:14:39;;;;;;;3.35;1.08;;;27.80;62.20;;;27.50;40.22;100958.63;5085599;28;20035;-56
2021/06/15 10:17:06;;;;;;;3.17;1.30;;;27.90;61.10;;;26.79;41.96;100970.78;5085252;28;20509;-58
2021/06/15 10:19:32;;;;;;;2.58;1.35;;;27.40;62.30;;;26.32;42.86;100962.13;5088999;28;20032;-55
2021/06/15 10:21:59;;;;;;;3.20;1.27;;;26.80;63.40;;;26.50;42.20;100961.94;5086438;28;20047;-59
2021/06/15 10:24:26;;;;;;;4.80;1.48;;;26.70;63.50;;;26.52;42.33;100948.34;5069207;28;20131;-58
2021/06/15 10:26:54;;;;;;;5.57;1.50;;;26.90;63.60;;;26.21;43.20;100949.56;5050415;28;20086;-59
2021/06/15 10:29:21;;;;;;;5.85;1.15;;;26.60;63.90;;;26.49;42.19;100948.81;5083805;28;20061;-54
2021/06/15 10:31:52;;;;;;;6.57;1.27;;;26.80;63.70;;;26.77;41.27;100952.31;5061410;28;20343;-59